Main page


Airports :

Dakar, Senegal

Léopold Sédar Senghor International Airport

latitude: 14-44N, longitude: 017-30W, elevation: 27 m

Current weather observation

The report was made 50 minutes ago, at 17:00 UTC
Wind 12 kt from the North/Northwest
Temperature 23°C
Humidity 65%
Pressure 1010 hPa
Visibility 10 km or more
no clouds below 1500 m and no cumulonimbus

METAR: GOOY 201700Z 34012KT CAVOK 23/16 Q1010

Time: 17:50 (17:50 UTC)


The report was made 20 minutes ago, at 17:30 UTC
Forecast valid from 20 at 18 UTC to 21 at 24 UTC
Wind 12 kt from the North
Visibility: 8000 m

TAF: GOOY 201730Z 2018/2124 35012KT 8000 NSC

Weather observations and forecasts of more than 4000 airports (METAR and TAF reports).

The available stations are represented by yellow and red dots on the map.

Hover mouse over dot to see the name of the station.

Then click to see weather observations and forecasts.

To change the map : click on the green buttons with a black cross to zoom in, on the green button with a dash to zoom out, or on the green arrows for adjacent maps.